sensor_id;sensor_type;location;lat;lon;timestamp;P1;durP1;ratioP1;P2;durP2;ratioP2
2219;SDS011;1116;51.502;7.414;2024-01-16T00:01:27;21.00;;;11.23;;
2219;SDS011;1116;51.502;7.414;2024-01-16T00:03:57;24.88;;;11.88;;
2219;SDS011;1116;51.502;7.414;2024-01-16T00:06:29;18.13;;;9.80;;
2219;SDS011;1116;51.502;7.414;2024-01-16T00:08:59;21.77;;;10.23;;
2219;SDS011;1116;51.502;7.414;2024-01-16T00:11:29;20.83;;;9.90;;
2219;SDS011;1116;51.502;7.414;2024-01-16T00:13:59;21.45;;;10.50;;
2219;SDS011;1116;51.502;7.414;2024-01-16T00:16:28;18.60;;;9.95;;
2219;SDS011;1116;51.502;7.414;2024-01-16T00:18:58;19.85;;;9.60;;
2219;SDS011;1116;51.502;7.414;2024-01-16T00:21:31;25.95;;;11.40;;
2219;SDS011;1116;51.502;7.414;2024-01-16T00:24:01;27.40;;;11.70;;
2219;SDS011;1116;51.502;7.414;2024-01-16T00:26:31;25.40;;;10.48;;
2219;SDS011;1116;51.502;7.414;2024-01-16T00:29:00;22.67;;;9.48;;
2219;SDS011;1116;51.502;7.414;2024-01-16T00:31:30;20.23;;;10.48;;
2219;SDS011;1116;51.502;7.414;2024-01-16T00:34:00;24.40;;;9.25;;
2219;SDS011;1116;51.502;7.414;2024-01-16T00:36:33;18.17;;;8.50;;
2219;SDS011;1116;51.502;7.414;2024-01-16T00:39:03;20.13;;;8.75;;
2219;SDS011;1116;51.502;7.414;2024-01-16T00:41:33;16.63;;;8.27;;
2219;SDS011;1116;51.502;7.414;2024-01-16T00:44:03;14.38;;;8.73;;
2219;SDS011;1116;51.502;7.414;2024-01-16T00:46:34;20.85;;;9.65;;
2219;SDS011;1116;51.502;7.414;2024-01-16T00:49:04;21.42;;;9.55;;
2219;SDS011;1116;51.502;7.414;2024-01-16T00:51:37;16.27;;;9.10;;
2219;SDS011;1116;51.502;7.414;2024-01-16T00:54:06;27.13;;;9.65;;
2219;SDS011;1116;51.502;7.414;2024-01-16T00:56:36;23.30;;;9.90;;
2219;SDS011;1116;51.502;7.414;2024-01-16T00:59:06;16.17;;;9.50;;
2219;SDS011;1116;51.502;7.414;2024-01-16T01:01:37;19.63;;;8.95;;
2219;SDS011;1116;51.502;7.414;2024-01-16T01:04:06;21.10;;;8.98;;
2219;SDS011;1116;51.502;7.414;2024-01-16T01:06:39;19.45;;;10.32;;
2219;SDS011;1116;51.502;7.414;2024-01-16T01:09:09;18.58;;;10.02;;
2219;SDS011;1116;51.502;7.414;2024-01-16T01:11:39;19.65;;;8.70;;
2219;SDS011;1116;51.502;7.414;2024-01-16T01:14:09;19.92;;;8.95;;
2219;SDS011;1116;51.502;7.414;2024-01-16T01:16:39;20.45;;;8.93;;
2219;SDS011;1116;51.502;7.414;2024-01-16T01:19:09;21.98;;;9.27;;
2219;SDS011;1116;51.502;7.414;2024-01-16T01:21:42;18.13;;;8.60;;
2219;SDS011;1116;51.502;7.414;2024-01-16T01:24:11;19.73;;;8.32;;
2219;SDS011;1116;51.502;7.414;2024-01-16T01:26:42;20.52;;;8.25;;
2219;SDS011;1116;51.502;7.414;2024-01-16T01:29:12;22.33;;;9.15;;
2219;SDS011;1116;51.502;7.414;2024-01-16T01:31:45;16.33;;;7.40;;
2219;SDS011;1116;51.502;7.414;2024-01-16T01:34:15;16.98;;;7.70;;
2219;SDS011;1116;51.502;7.414;2024-01-16T01:36:48;17.13;;;8.40;;
2219;SDS011;1116;51.502;7.414;2024-01-16T01:39:18;19.95;;;7.35;;
2219;SDS011;1116;51.502;7.414;2024-01-16T01:41:48;17.85;;;6.78;;
2219;SDS011;1116;51.502;7.414;2024-01-16T01:44:18;21.45;;;8.15;;
2219;SDS011;1116;51.502;7.414;2024-01-16T01:46:48;16.15;;;7.97;;
2219;SDS011;1116;51.502;7.414;2024-01-16T01:49:17;18.45;;;8.43;;
2219;SDS011;1116;51.502;7.414;2024-01-16T01:51:50;15.98;;;7.20;;
2219;SDS011;1116;51.502;7.414;2024-01-16T01:54:20;18.38;;;7.30;;
2219;SDS011;1116;51.502;7.414;2024-01-16T01:56:51;20.08;;;7.78;;
2219;SDS011;1116;51.502;7.414;2024-01-16T01:59:21;23.33;;;8.68;;
2219;SDS011;1116;51.502;7.414;2024-01-16T02:01:52;17.15;;;8.38;;
2219;SDS011;1116;51.502;7.414;2024-01-16T02:04:23;16.80;;;8.57;;
2219;SDS011;1116;51.502;7.414;2024-01-16T02:06:58;15.73;;;7.47;;
2219;SDS011;1116;51.502;7.414;2024-01-16T02:09:28;25.63;;;7.85;;
2219;SDS011;1116;51.502;7.414;2024-01-16T02:11:58;16.33;;;7.68;;
2219;SDS011;1116;51.502;7.414;2024-01-16T02:14:28;17.60;;;7.93;;
2219;SDS011;1116;51.502;7.414;2024-01-16T02:16:58;17.67;;;8.07;;
2219;SDS011;1116;51.502;7.414;2024-01-16T02:19:28;22.55;;;7.65;;
2219;SDS011;1116;51.502;7.414;2024-01-16T02:22:01;13.55;;;6.88;;
2219;SDS011;1116;51.502;7.414;2024-01-16T02:24:36;13.70;;;6.70;;
2219;SDS011;1116;51.502;7.414;2024-01-16T02:27:05;19.80;;;7.72;;
2219;SDS011;1116;51.502;7.414;2024-01-16T02:29:39;21.60;;;7.97;;
2219;SDS011;1116;51.502;7.414;2024-01-16T02:32:10;12.10;;;7.07;;
2219;SDS011;1116;51.502;7.414;2024-01-16T02:34:41;21.38;;;8.23;;
2219;SDS011;1116;51.502;7.414;2024-01-16T02:37:11;21.05;;;7.30;;
2219;SDS011;1116;51.502;7.414;2024-01-16T02:39:43;16.13;;;7.28;;
2219;SDS011;1116;51.502;7.414;2024-01-16T02:42:13;23.02;;;8.27;;
2219;SDS011;1116;51.502;7.414;2024-01-16T02:44:43;16.23;;;7.22;;
2219;SDS011;1116;51.502;7.414;2024-01-16T02:47:13;17.52;;;8.48;;
2219;SDS011;1116;51.502;7.414;2024-01-16T02:49:43;13.07;;;7.45;;
2219;SDS011;1116;51.502;7.414;2024-01-16T02:52:13;17.30;;;7.60;;
2219;SDS011;1116;51.502;7.414;2024-01-16T02:54:45;15.13;;;7.72;;
2219;SDS011;1116;51.502;7.414;2024-01-16T02:57:15;18.90;;;7.82;;
2219;SDS011;1116;51.502;7.414;2024-01-16T02:59:45;16.73;;;7.70;;
2219;SDS011;1116;51.502;7.414;2024-01-16T03:02:15;18.95;;;8.02;;
2219;SDS011;1116;51.502;7.414;2024-01-16T03:04:45;16.02;;;8.02;;
2219;SDS011;1116;51.502;7.414;2024-01-16T03:07:15;18.27;;;8.27;;
2219;SDS011;1116;51.502;7.414;2024-01-16T03:09:47;16.75;;;7.80;;
2219;SDS011;1116;51.502;7.414;2024-01-16T03:12:17;15.50;;;7.10;;
2219;SDS011;1116;51.502;7.414;2024-01-16T03:14:47;16.70;;;6.70;;
2219;SDS011;1116;51.502;7.414;2024-01-16T03:17:19;14.90;;;7.32;;
2219;SDS011;1116;51.502;7.414;2024-01-16T03:19:49;15.48;;;7.88;;
2219;SDS011;1116;51.502;7.414;2024-01-16T03:22:19;16.90;;;6.65;;
2219;SDS011;1116;51.502;7.414;2024-01-16T03:24:52;16.52;;;7.35;;
2219;SDS011;1116;51.502;7.414;2024-01-16T03:27:21;16.77;;;7.40;;
2219;SDS011;1116;51.502;7.414;2024-01-16T03:29:51;14.45;;;6.47;;
2219;SDS011;1116;51.502;7.414;2024-01-16T03:32:22;16.63;;;6.80;;
2219;SDS011;1116;51.502;7.414;2024-01-16T03:34:52;17.98;;;6.13;;
2219;SDS011;1116;51.502;7.414;2024-01-16T03:37:22;16.15;;;6.35;;
2219;SDS011;1116;51.502;7.414;2024-01-16T03:39:54;12.00;;;6.10;;
2219;SDS011;1116;51.502;7.414;2024-01-16T03:42:24;19.50;;;6.50;;
2219;SDS011;1116;51.502;7.414;2024-01-16T03:44:54;13.35;;;6.60;;
2219;SDS011;1116;51.502;7.414;2024-01-16T03:47:24;12.13;;;5.47;;
2219;SDS011;1116;51.502;7.414;2024-01-16T03:49:54;15.10;;;6.50;;
2219;SDS011;1116;51.502;7.414;2024-01-16T03:52:24;12.93;;;6.60;;
2219;SDS011;1116;51.502;7.414;2024-01-16T03:54:56;18.65;;;7.13;;
2219;SDS011;1116;51.502;7.414;2024-01-16T03:57:26;13.23;;;6.45;;
2219;SDS011;1116;51.502;7.414;2024-01-16T03:59:55;10.75;;;6.13;;
2219;SDS011;1116;51.502;7.414;2024-01-16T04:02:25;14.80;;;6.78;;
2219;SDS011;1116;51.502;7.414;2024-01-16T04:04:55;12.02;;;6.85;;
2219;SDS011;1116;51.502;7.414;2024-01-16T04:07:25;17.27;;;7.95;;
2219;SDS011;1116;51.502;7.414;2024-01-16T04:09:58;12.60;;;7.90;;
2219;SDS011;1116;51.502;7.414;2024-01-16T04:12:25;13.25;;;7.10;;
2219;SDS011;1116;51.502;7.414;2024-01-16T04:14:54;19.88;;;9.48;;
2219;SDS011;1116;51.502;7.414;2024-01-16T04:17:24;19.38;;;9.38;;
2219;SDS011;1116;51.502;7.414;2024-01-16T04:19:55;19.40;;;9.82;;
2219;SDS011;1116;51.502;7.414;2024-01-16T04:22:24;19.58;;;10.05;;
2219;SDS011;1116;51.502;7.414;2024-01-16T04:24:54;19.40;;;10.85;;
2219;SDS011;1116;51.502;7.414;2024-01-16T04:27:27;22.88;;;10.85;;
2219;SDS011;1116;51.502;7.414;2024-01-16T04:29:56;22.42;;;11.40;;
2219;SDS011;1116;51.502;7.414;2024-01-16T04:32:26;26.02;;;10.90;;
2219;SDS011;1116;51.502;7.414;2024-01-16T04:34:56;23.70;;;11.77;;
2219;SDS011;1116;51.502;7.414;2024-01-16T04:37:26;20.83;;;11.85;;
2219;SDS011;1116;51.502;7.414;2024-01-16T04:39:59;30.33;;;12.55;;
2219;SDS011;1116;51.502;7.414;2024-01-16T04:42:28;24.10;;;11.25;;
2219;SDS011;1116;51.502;7.414;2024-01-16T04:44:58;20.35;;;11.13;;
2219;SDS011;1116;51.502;7.414;2024-01-16T04:47:28;28.90;;;11.43;;
2219;SDS011;1116;51.502;7.414;2024-01-16T04:49:58;26.42;;;12.23;;
2219;SDS011;1116;51.502;7.414;2024-01-16T04:52:28;28.42;;;12.77;;
2219;SDS011;1116;51.502;7.414;2024-01-16T04:55:00;22.58;;;11.27;;
2219;SDS011;1116;51.502;7.414;2024-01-16T04:57:30;25.48;;;11.43;;
2219;SDS011;1116;51.502;7.414;2024-01-16T05:00:00;25.80;;;12.50;;
2219;SDS011;1116;51.502;7.414;2024-01-16T05:02:33;24.45;;;12.02;;
2219;SDS011;1116;51.502;7.414;2024-01-16T05:05:03;22.08;;;11.68;;
2219;SDS011;1116;51.502;7.414;2024-01-16T05:07:35;23.70;;;10.20;;
2219;SDS011;1116;51.502;7.414;2024-01-16T05:10:09;23.23;;;10.40;;
2219;SDS011;1116;51.502;7.414;2024-01-16T05:12:39;21.15;;;10.77;;
2219;SDS011;1116;51.502;7.414;2024-01-16T05:15:09;19.92;;;10.57;;
2219;SDS011;1116;51.502;7.414;2024-01-16T05:17:40;23.00;;;10.70;;
2219;SDS011;1116;51.502;7.414;2024-01-16T05:20:11;21.90;;;10.93;;
2219;SDS011;1116;51.502;7.414;2024-01-16T05:22:41;22.35;;;10.20;;
2219;SDS011;1116;51.502;7.414;2024-01-16T05:25:13;23.20;;;10.43;;
2219;SDS011;1116;51.502;7.414;2024-01-16T05:27:43;24.23;;;9.88;;
2219;SDS011;1116;51.502;7.414;2024-01-16T05:30:13;16.27;;;9.57;;
2219;SDS011;1116;51.502;7.414;2024-01-16T05:32:43;22.55;;;11.82;;
2219;SDS011;1116;51.502;7.414;2024-01-16T05:35:11;21.75;;;11.52;;
2219;SDS011;1116;51.502;7.414;2024-01-16T05:37:40;21.95;;;11.18;;
2219;SDS011;1116;51.502;7.414;2024-01-16T05:40:13;21.83;;;10.63;;
2219;SDS011;1116;51.502;7.414;2024-01-16T05:42:43;19.20;;;10.32;;
2219;SDS011;1116;51.502;7.414;2024-01-16T05:45:13;22.60;;;10.27;;
2219;SDS011;1116;51.502;7.414;2024-01-16T05:47:42;26.80;;;11.77;;
2219;SDS011;1116;51.502;7.414;2024-01-16T05:50:13;30.40;;;14.35;;
2219;SDS011;1116;51.502;7.414;2024-01-16T05:52:43;24.83;;;12.07;;
2219;SDS011;1116;51.502;7.414;2024-01-16T05:55:15;32.30;;;13.85;;
2219;SDS011;1116;51.502;7.414;2024-01-16T05:57:47;35.40;;;15.02;;
2219;SDS011;1116;51.502;7.414;2024-01-16T06:00:18;26.63;;;11.85;;
2219;SDS011;1116;51.502;7.414;2024-01-16T06:02:49;16.40;;;9.25;;
2219;SDS011;1116;51.502;7.414;2024-01-16T06:05:19;16.15;;;8.55;;
2219;SDS011;1116;51.502;7.414;2024-01-16T06:07:49;17.48;;;8.90;;
2219;SDS011;1116;51.502;7.414;2024-01-16T06:10:21;18.98;;;8.52;;
2219;SDS011;1116;51.502;7.414;2024-01-16T06:12:51;12.43;;;7.00;;
2219;SDS011;1116;51.502;7.414;2024-01-16T06:15:21;15.02;;;7.20;;
2219;SDS011;1116;51.502;7.414;2024-01-16T06:17:51;15.20;;;8.00;;
2219;SDS011;1116;51.502;7.414;2024-01-16T06:20:21;15.75;;;7.10;;
2219;SDS011;1116;51.502;7.414;2024-01-16T06:22:52;12.00;;;6.07;;
2219;SDS011;1116;51.502;7.414;2024-01-16T06:25:24;14.32;;;6.70;;
2219;SDS011;1116;51.502;7.414;2024-01-16T06:27:54;13.43;;;7.25;;
2219;SDS011;1116;51.502;7.414;2024-01-16T06:30:28;14.63;;;6.38;;
2219;SDS011;1116;51.502;7.414;2024-01-16T06:32:58;14.40;;;6.18;;
2219;SDS011;1116;51.502;7.414;2024-01-16T06:35:28;17.27;;;7.10;;
2219;SDS011;1116;51.502;7.414;2024-01-16T06:37:58;12.10;;;6.40;;
2219;SDS011;1116;51.502;7.414;2024-01-16T06:40:30;13.52;;;5.05;;
2219;SDS011;1116;51.502;7.414;2024-01-16T06:43:00;11.27;;;5.38;;
2219;SDS011;1116;51.502;7.414;2024-01-16T06:45:30;16.25;;;6.00;;
2219;SDS011;1116;51.502;7.414;2024-01-16T06:48:00;12.40;;;7.32;;
2219;SDS011;1116;51.502;7.414;2024-01-16T06:50:30;15.20;;;5.85;;
2219;SDS011;1116;51.502;7.414;2024-01-16T06:53:00;17.33;;;5.20;;
2219;SDS011;1116;51.502;7.414;2024-01-16T06:55:32;16.15;;;6.13;;
2219;SDS011;1116;51.502;7.414;2024-01-16T06:58:02;15.75;;;6.55;;
2219;SDS011;1116;51.502;7.414;2024-01-16T07:00:32;16.38;;;8.18;;
2219;SDS011;1116;51.502;7.414;2024-01-16T07:03:02;16.20;;;9.05;;
2219;SDS011;1116;51.502;7.414;2024-01-16T07:05:32;22.23;;;8.85;;
2219;SDS011;1116;51.502;7.414;2024-01-16T07:08:03;20.10;;;10.88;;
2219;SDS011;1116;51.502;7.414;2024-01-16T07:10:35;26.33;;;10.40;;
2219;SDS011;1116;51.502;7.414;2024-01-16T07:13:05;25.92;;;12.23;;
2219;SDS011;1116;51.502;7.414;2024-01-16T07:15:36;29.52;;;11.82;;
2219;SDS011;1116;51.502;7.414;2024-01-16T07:18:06;26.08;;;11.40;;
2219;SDS011;1116;51.502;7.414;2024-01-16T07:20:36;29.30;;;12.50;;
2219;SDS011;1116;51.502;7.414;2024-01-16T07:23:05;23.83;;;11.45;;
2219;SDS011;1116;51.502;7.414;2024-01-16T07:25:38;27.48;;;13.68;;
2219;SDS011;1116;51.502;7.414;2024-01-16T07:28:08;21.90;;;12.25;;
2219;SDS011;1116;51.502;7.414;2024-01-16T07:30:38;26.75;;;13.15;;
2219;SDS011;1116;51.502;7.414;2024-01-16T07:33:08;21.52;;;11.10;;
2219;SDS011;1116;51.502;7.414;2024-01-16T07:35:38;27.08;;;12.40;;
2219;SDS011;1116;51.502;7.414;2024-01-16T07:38:10;21.40;;;11.52;;
2219;SDS011;1116;51.502;7.414;2024-01-16T07:40:42;19.88;;;11.18;;
2219;SDS011;1116;51.502;7.414;2024-01-16T07:43:12;23.83;;;12.02;;
2219;SDS011;1116;51.502;7.414;2024-01-16T07:45:42;20.10;;;11.15;;
2219;SDS011;1116;51.502;7.414;2024-01-16T07:48:12;18.92;;;11.02;;
2219;SDS011;1116;51.502;7.414;2024-01-16T07:50:42;29.45;;;12.30;;
2219;SDS011;1116;51.502;7.414;2024-01-16T07:53:12;20.95;;;9.40;;
2219;SDS011;1116;51.502;7.414;2024-01-16T07:55:45;21.50;;;9.73;;
2219;SDS011;1116;51.502;7.414;2024-01-16T07:58:15;19.92;;;8.77;;
2219;SDS011;1116;51.502;7.414;2024-01-16T08:00:45;21.00;;;8.93;;
2219;SDS011;1116;51.502;7.414;2024-01-16T08:03:15;22.60;;;8.30;;
2219;SDS011;1116;51.502;7.414;2024-01-16T08:05:45;22.98;;;8.82;;
2219;SDS011;1116;51.502;7.414;2024-01-16T08:08:15;24.10;;;7.97;;
2219;SDS011;1116;51.502;7.414;2024-01-16T08:10:47;22.77;;;8.13;;
2219;SDS011;1116;51.502;7.414;2024-01-16T08:13:17;20.95;;;7.63;;
2219;SDS011;1116;51.502;7.414;2024-01-16T08:15:47;18.08;;;8.27;;
2219;SDS011;1116;51.502;7.414;2024-01-16T08:18:16;19.02;;;8.02;;
2219;SDS011;1116;51.502;7.414;2024-01-16T08:20:46;16.05;;;7.63;;
2219;SDS011;1116;51.502;7.414;2024-01-16T08:23:16;13.63;;;5.97;;
2219;SDS011;1116;51.502;7.414;2024-01-16T08:25:50;11.65;;;6.70;;
2219;SDS011;1116;51.502;7.414;2024-01-16T08:28:20;18.17;;;6.45;;
2219;SDS011;1116;51.502;7.414;2024-01-16T08:30:50;13.20;;;5.90;;
2219;SDS011;1116;51.502;7.414;2024-01-16T08:33:20;12.52;;;6.13;;
2219;SDS011;1116;51.502;7.414;2024-01-16T08:36:02;13.38;;;6.00;;
2219;SDS011;1116;51.502;7.414;2024-01-16T08:38:33;18.65;;;6.63;;
2219;SDS011;1116;51.502;7.414;2024-01-16T08:41:05;14.68;;;5.03;;
2219;SDS011;1116;51.502;7.414;2024-01-16T08:43:35;25.65;;;7.75;;
2219;SDS011;1116;51.502;7.414;2024-01-16T08:46:05;41.13;;;13.48;;
2219;SDS011;1116;51.502;7.414;2024-01-16T08:48:35;30.88;;;9.80;;
2219;SDS011;1116;51.502;7.414;2024-01-16T08:51:07;33.97;;;10.23;;
2219;SDS011;1116;51.502;7.414;2024-01-16T08:53:41;19.42;;;6.35;;
2219;SDS011;1116;51.502;7.414;2024-01-16T08:56:14;19.10;;;6.72;;
2219;SDS011;1116;51.502;7.414;2024-01-16T08:58:44;10.05;;;4.70;;
2219;SDS011;1116;51.502;7.414;2024-01-16T09:01:14;10.43;;;4.63;;
2219;SDS011;1116;51.502;7.414;2024-01-16T09:03:44;10.68;;;4.05;;
2219;SDS011;1116;51.502;7.414;2024-01-16T09:06:13;9.20;;;3.78;;
2219;SDS011;1116;51.502;7.414;2024-01-16T09:08:43;7.85;;;2.97;;
2219;SDS011;1116;51.502;7.414;2024-01-16T09:11:16;13.32;;;3.83;;
2219;SDS011;1116;51.502;7.414;2024-01-16T09:13:46;10.40;;;4.20;;
2219;SDS011;1116;51.502;7.414;2024-01-16T09:16:15;10.75;;;4.05;;
2219;SDS011;1116;51.502;7.414;2024-01-16T09:18:45;8.18;;;3.58;;
2219;SDS011;1116;51.502;7.414;2024-01-16T09:21:15;15.23;;;3.58;;
2219;SDS011;1116;51.502;7.414;2024-01-16T09:23:45;9.27;;;3.35;;
2219;SDS011;1116;51.502;7.414;2024-01-16T09:26:18;5.82;;;3.00;;
2219;SDS011;1116;51.502;7.414;2024-01-16T09:28:47;13.25;;;3.08;;
2219;SDS011;1116;51.502;7.414;2024-01-16T09:31:17;8.95;;;3.25;;
2219;SDS011;1116;51.502;7.414;2024-01-16T09:33:47;12.32;;;2.83;;
2219;SDS011;1116;51.502;7.414;2024-01-16T09:36:17;10.70;;;3.10;;
2219;SDS011;1116;51.502;7.414;2024-01-16T09:38:47;11.93;;;3.38;;
2219;SDS011;1116;51.502;7.414;2024-01-16T09:41:20;12.77;;;2.88;;
2219;SDS011;1116;51.502;7.414;2024-01-16T09:43:50;9.35;;;3.10;;
2219;SDS011;1116;51.502;7.414;2024-01-16T09:46:22;7.22;;;3.08;;
2219;SDS011;1116;51.502;7.414;2024-01-16T09:48:52;24.65;;;3.78;;
2219;SDS011;1116;51.502;7.414;2024-01-16T09:51:24;13.43;;;3.22;;
2219;SDS011;1116;51.502;7.414;2024-01-16T09:53:54;9.20;;;3.00;;
2219;SDS011;1116;51.502;7.414;2024-01-16T09:56:27;10.00;;;2.88;;
2219;SDS011;1116;51.502;7.414;2024-01-16T09:58:58;9.57;;;3.17;;
2219;SDS011;1116;51.502;7.414;2024-01-16T10:01:34;10.68;;;3.13;;
2219;SDS011;1116;51.502;7.414;2024-01-16T10:04:05;13.10;;;3.80;;
2219;SDS011;1116;51.502;7.414;2024-01-16T10:06:35;16.83;;;3.03;;
2219;SDS011;1116;51.502;7.414;2024-01-16T10:09:08;10.35;;;3.10;;
2219;SDS011;1116;51.502;7.414;2024-01-16T10:11:41;9.38;;;3.30;;
2219;SDS011;1116;51.502;7.414;2024-01-16T10:14:11;15.52;;;3.25;;
2219;SDS011;1116;51.502;7.414;2024-01-16T10:19:33;8.43;;;3.25;;
2219;SDS011;1116;51.502;7.414;2024-01-16T10:22:19;5.32;;;2.30;;
2219;SDS011;1116;51.502;7.414;2024-01-16T10:25:03;6.43;;;2.75;;
2219;SDS011;1116;51.502;7.414;2024-01-16T10:27:36;8.30;;;2.90;;
2219;SDS011;1116;51.502;7.414;2024-01-16T10:30:07;13.65;;;3.10;;
2219;SDS011;1116;51.502;7.414;2024-01-16T10:32:39;10.18;;;3.30;;
2219;SDS011;1116;51.502;7.414;2024-01-16T10:35:10;13.45;;;3.30;;
2219;SDS011;1116;51.502;7.414;2024-01-16T10:37:42;14.88;;;4.03;;
2219;SDS011;1116;51.502;7.414;2024-01-16T10:40:15;10.85;;;3.50;;
2219;SDS011;1116;51.502;7.414;2024-01-16T10:43:00;10.50;;;2.83;;
2219;SDS011;1116;51.502;7.414;2024-01-16T10:45:31;14.52;;;3.30;;
2219;SDS011;1116;51.502;7.414;2024-01-16T10:48:01;5.97;;;3.03;;
2219;SDS011;1116;51.502;7.414;2024-01-16T10:50:33;11.27;;;3.50;;
2219;SDS011;1116;51.502;7.414;2024-01-16T10:53:07;12.25;;;4.35;;
2219;SDS011;1116;51.502;7.414;2024-01-16T10:55:38;15.75;;;5.35;;
2219;SDS011;1116;51.502;7.414;2024-01-16T10:58:17;20.15;;;3.63;;
2219;SDS011;1116;51.502;7.414;2024-01-16T11:00:52;9.90;;;3.30;;
2219;SDS011;1116;51.502;7.414;2024-01-16T11:03:24;13.02;;;3.63;;
2219;SDS011;1116;51.502;7.414;2024-01-16T11:05:57;22.75;;;6.72;;
2219;SDS011;1116;51.502;7.414;2024-01-16T11:08:30;18.90;;;5.32;;
2219;SDS011;1116;51.502;7.414;2024-01-16T11:11:01;10.07;;;2.92;;
2219;SDS011;1116;51.502;7.414;2024-01-16T11:13:38;13.18;;;3.28;;
2219;SDS011;1116;51.502;7.414;2024-01-16T11:16:11;11.80;;;3.30;;
2219;SDS011;1116;51.502;7.414;2024-01-16T11:18:41;10.57;;;3.20;;
2219;SDS011;1116;51.502;7.414;2024-01-16T11:21:11;13.48;;;3.75;;
2219;SDS011;1116;51.502;7.414;2024-01-16T11:23:44;16.70;;;3.45;;
2219;SDS011;1116;51.502;7.414;2024-01-16T11:26:24;9.43;;;3.25;;
2219;SDS011;1116;51.502;7.414;2024-01-16T11:29:33;9.82;;;3.33;;
2219;SDS011;1116;51.502;7.414;2024-01-16T11:32:05;10.73;;;3.33;;
2219;SDS011;1116;51.502;7.414;2024-01-16T11:34:53;9.40;;;3.63;;
2219;SDS011;1116;51.502;7.414;2024-01-16T11:37:27;8.75;;;3.13;;
2219;SDS011;1116;51.502;7.414;2024-01-16T11:42:52;9.25;;;2.75;;
2219;SDS011;1116;51.502;7.414;2024-01-16T11:48:17;11.88;;;3.42;;
2219;SDS011;1116;51.502;7.414;2024-01-16T11:50:49;10.65;;;2.97;;
2219;SDS011;1116;51.502;7.414;2024-01-16T11:53:31;8.20;;;2.92;;
2219;SDS011;1116;51.502;7.414;2024-01-16T12:02:36;12.75;;;5.10;;
2219;SDS011;1116;51.502;7.414;2024-01-16T12:05:14;11.77;;;5.97;;
2219;SDS011;1116;51.502;7.414;2024-01-16T12:07:47;13.05;;;5.05;;
2219;SDS011;1116;51.502;7.414;2024-01-16T12:10:19;10.57;;;3.92;;
2219;SDS011;1116;51.502;7.414;2024-01-16T12:12:51;14.18;;;3.83;;
2219;SDS011;1116;51.502;7.414;2024-01-16T12:15:31;11.32;;;3.47;;
2219;SDS011;1116;51.502;7.414;2024-01-16T12:18:03;8.65;;;3.40;;
2219;SDS011;1116;51.502;7.414;2024-01-16T12:20:41;9.18;;;3.40;;
2219;SDS011;1116;51.502;7.414;2024-01-16T12:23:11;7.47;;;2.85;;
2219;SDS011;1116;51.502;7.414;2024-01-16T12:25:43;8.88;;;3.08;;
2219;SDS011;1116;51.502;7.414;2024-01-16T12:28:29;9.63;;;3.50;;
2219;SDS011;1116;51.502;7.414;2024-01-16T12:30:59;10.27;;;3.47;;
2219;SDS011;1116;51.502;7.414;2024-01-16T12:33:32;11.32;;;3.50;;
2219;SDS011;1116;51.502;7.414;2024-01-16T12:36:03;15.88;;;4.20;;
2219;SDS011;1116;51.502;7.414;2024-01-16T12:38:33;13.90;;;3.22;;
2219;SDS011;1116;51.502;7.414;2024-01-16T12:41:05;10.02;;;3.38;;
2219;SDS011;1116;51.502;7.414;2024-01-16T12:43:38;13.15;;;3.75;;
2219;SDS011;1116;51.502;7.414;2024-01-16T12:46:10;11.32;;;3.35;;
2219;SDS011;1116;51.502;7.414;2024-01-16T12:48:43;6.75;;;2.97;;
2219;SDS011;1116;51.502;7.414;2024-01-16T12:51:28;10.32;;;3.40;;
2219;SDS011;1116;51.502;7.414;2024-01-16T12:54:09;9.80;;;3.20;;
2219;SDS011;1116;51.502;7.414;2024-01-16T12:56:40;9.95;;;3.75;;
2219;SDS011;1116;51.502;7.414;2024-01-16T12:59:11;10.55;;;3.72;;
2219;SDS011;1116;51.502;7.414;2024-01-16T13:01:42;9.63;;;3.33;;
2219;SDS011;1116;51.502;7.414;2024-01-16T13:04:16;9.77;;;3.20;;
2219;SDS011;1116;51.502;7.414;2024-01-16T13:06:47;8.18;;;3.22;;
2219;SDS011;1116;51.502;7.414;2024-01-16T13:09:17;16.90;;;3.70;;
2219;SDS011;1116;51.502;7.414;2024-01-16T13:14:25;12.15;;;3.20;;
2219;SDS011;1116;51.502;7.414;2024-01-16T13:16:55;17.60;;;3.85;;
2219;SDS011;1116;51.502;7.414;2024-01-16T13:19:28;10.25;;;3.60;;
2219;SDS011;1116;51.502;7.414;2024-01-16T13:22:00;9.25;;;2.78;;
2219;SDS011;1116;51.502;7.414;2024-01-16T13:24:30;10.77;;;3.38;;
2219;SDS011;1116;51.502;7.414;2024-01-16T13:27:00;12.60;;;4.15;;
2219;SDS011;1116;51.502;7.414;2024-01-16T13:29:31;12.25;;;3.38;;
2219;SDS011;1116;51.502;7.414;2024-01-16T13:32:04;14.40;;;3.80;;
2219;SDS011;1116;51.502;7.414;2024-01-16T13:34:37;9.52;;;3.65;;
2219;SDS011;1116;51.502;7.414;2024-01-16T13:37:13;13.60;;;4.80;;
2219;SDS011;1116;51.502;7.414;2024-01-16T13:39:50;10.90;;;3.47;;
2219;SDS011;1116;51.502;7.414;2024-01-16T13:42:19;15.27;;;4.20;;
2219;SDS011;1116;51.502;7.414;2024-01-16T13:44:49;14.05;;;4.65;;
2219;SDS011;1116;51.502;7.414;2024-01-16T13:47:19;13.07;;;4.10;;
2219;SDS011;1116;51.502;7.414;2024-01-16T13:49:52;15.10;;;3.97;;
2219;SDS011;1116;51.502;7.414;2024-01-16T13:52:22;8.55;;;3.45;;
2219;SDS011;1116;51.502;7.414;2024-01-16T13:54:54;14.15;;;4.03;;
2219;SDS011;1116;51.502;7.414;2024-01-16T13:57:24;12.20;;;3.80;;
2219;SDS011;1116;51.502;7.414;2024-01-16T13:59:54;16.58;;;4.55;;
2219;SDS011;1116;51.502;7.414;2024-01-16T14:02:25;13.43;;;3.85;;
2219;SDS011;1116;51.502;7.414;2024-01-16T14:04:58;11.63;;;4.07;;
2219;SDS011;1116;51.502;7.414;2024-01-16T14:07:28;10.73;;;3.63;;
2219;SDS011;1116;51.502;7.414;2024-01-16T14:09:58;6.85;;;3.10;;
2219;SDS011;1116;51.502;7.414;2024-01-16T14:12:31;10.57;;;3.85;;
2219;SDS011;1116;51.502;7.414;2024-01-16T14:15:02;10.88;;;3.88;;
2219;SDS011;1116;51.502;7.414;2024-01-16T14:17:42;10.93;;;4.07;;
2219;SDS011;1116;51.502;7.414;2024-01-16T14:20:16;8.70;;;3.83;;
2219;SDS011;1116;51.502;7.414;2024-01-16T14:22:53;10.55;;;4.07;;
2219;SDS011;1116;51.502;7.414;2024-01-16T14:25:24;12.93;;;4.68;;
2219;SDS011;1116;51.502;7.414;2024-01-16T14:27:58;11.27;;;3.83;;
2219;SDS011;1116;51.502;7.414;2024-01-16T14:30:31;12.13;;;3.72;;
2219;SDS011;1116;51.502;7.414;2024-01-16T14:33:02;10.68;;;3.70;;
2219;SDS011;1116;51.502;7.414;2024-01-16T14:35:36;9.05;;;4.07;;
2219;SDS011;1116;51.502;7.414;2024-01-16T14:38:06;15.13;;;4.20;;
2219;SDS011;1116;51.502;7.414;2024-01-16T14:40:35;8.90;;;4.15;;
2219;SDS011;1116;51.502;7.414;2024-01-16T14:43:06;8.55;;;3.42;;
2219;SDS011;1116;51.502;7.414;2024-01-16T14:45:36;9.82;;;3.80;;
2219;SDS011;1116;51.502;7.414;2024-01-16T14:48:07;8.38;;;4.18;;
2219;SDS011;1116;51.502;7.414;2024-01-16T14:50:40;9.15;;;4.07;;
2219;SDS011;1116;51.502;7.414;2024-01-16T14:53:10;11.90;;;4.28;;
2219;SDS011;1116;51.502;7.414;2024-01-16T14:55:40;10.55;;;3.90;;
2219;SDS011;1116;51.502;7.414;2024-01-16T14:58:10;8.68;;;3.70;;
2219;SDS011;1116;51.502;7.414;2024-01-16T15:00:40;15.07;;;4.55;;
2219;SDS011;1116;51.502;7.414;2024-01-16T15:03:12;13.05;;;5.00;;
2219;SDS011;1116;51.502;7.414;2024-01-16T15:05:49;12.15;;;4.13;;
2219;SDS011;1116;51.502;7.414;2024-01-16T15:08:21;10.80;;;4.07;;
2219;SDS011;1116;51.502;7.414;2024-01-16T15:10:52;16.48;;;5.30;;
2219;SDS011;1116;51.502;7.414;2024-01-16T15:13:22;15.65;;;5.72;;
2219;SDS011;1116;51.502;7.414;2024-01-16T15:15:52;17.45;;;6.28;;
2219;SDS011;1116;51.502;7.414;2024-01-16T15:18:22;10.65;;;4.78;;
2219;SDS011;1116;51.502;7.414;2024-01-16T15:20:56;12.25;;;4.88;;
2219;SDS011;1116;51.502;7.414;2024-01-16T15:23:26;12.10;;;4.10;;
2219;SDS011;1116;51.502;7.414;2024-01-16T15:25:56;18.48;;;4.05;;
2219;SDS011;1116;51.502;7.414;2024-01-16T15:28:29;20.38;;;4.47;;
2219;SDS011;1116;51.502;7.414;2024-01-16T15:30:59;13.18;;;4.32;;
2219;SDS011;1116;51.502;7.414;2024-01-16T15:33:34;8.13;;;3.13;;
2219;SDS011;1116;51.502;7.414;2024-01-16T15:36:07;11.82;;;4.80;;
2219;SDS011;1116;51.502;7.414;2024-01-16T15:38:37;9.73;;;4.47;;
2219;SDS011;1116;51.502;7.414;2024-01-16T15:41:07;14.18;;;4.95;;
2219;SDS011;1116;51.502;7.414;2024-01-16T15:43:37;13.80;;;4.70;;